Time;durP1;ratioP1;P1;durP2;ratioP2;P2;SDS_P1;SDS_P2;PMS_P1;PMS_P2;Temp;Humidity;BMP_temperature;BMP_pressure;BME280_temperature;BME280_humidity;BME280_pressure;Samples;Min_cycle;Max_cycle;Signal;HPM_P1;HPM_P2
2023/01/14 00:00:00;;;;;;;1.7;1.7;;;;;;;6.9;100.0;101240;;;;
2023/01/14 00:01:01;;;;;;;1.7;1.7;;;;;;;6.9;100.0;101240;;;;
2023/01/14 00:02:00;;;;;;;1.7;1.7;;;;;;;6.8;100.0;101240;;;;
2023/01/14 00:03:00;;;;;;;1.7;1.7;;;;;;;6.8;100.0;101240;;;;
2023/01/14 00:04:01;;;;;;;1.7;1.7;;;;;;;6.7;100.0;101240;;;;
2023/01/14 00:05:00;;;;;;;1.7;1.7;;;;;;;6.7;100.0;101240;;;;
2023/01/14 00:06:00;;;;;;;1.7;1.7;;;;;;;6.8;100.0;101230;;;;
2023/01/14 00:07:01;;;;;;;1.7;1.7;;;;;;;6.8;100.0;101230;;;;
2023/01/14 00:08:00;;;;;;;1.7;1.7;;;;;;;6.9;100.0;101230;;;;
2023/01/14 00:09:01;;;;;;;1.7;1.7;;;;;;;6.9;100.0;101230;;;;
2023/01/14 00:10:00;;;;;;;1.7;1.7;;;;;;;6.9;100.0;101240;;;;
2023/01/14 00:11:03;;;;;;;1.7;1.7;;;;;;;6.9;100.0;101240;;;;
2023/01/14 00:12:00;;;;;;;1.7;1.7;;;;;;;6.9;100.0;101240;;;;
2023/01/14 00:13:00;;;;;;;1.7;1.7;;;;;;;6.9;100.0;101240;;;;
2023/01/14 00:14:00;;;;;;;1.5;1.5;;;;;;;6.9;100.0;101250;;;;
2023/01/14 00:15:00;;;;;;;1.5;1.5;;;;;;;6.9;100.0;101250;;;;
2023/01/14 00:16:01;;;;;;;1.5;1.5;;;;;;;6.9;100.0;101250;;;;
2023/01/14 00:17:01;;;;;;;1.5;1.5;;;;;;;6.9;100.0;101250;;;;
2023/01/14 00:18:00;;;;;;;1.5;1.5;;;;;;;6.8;100.0;101260;;;;
2023/01/14 00:19:00;;;;;;;1.5;1.5;;;;;;;6.8;100.0;101260;;;;
2023/01/14 00:20:00;;;;;;;1.5;1.5;;;;;;;6.8;100.0;101260;;;;
2023/01/14 00:21:03;;;;;;;1.5;1.5;;;;;;;6.8;100.0;101260;;;;
2023/01/14 00:22:00;;;;;;;1.5;1.5;;;;;;;6.9;100.0;101260;;;;
2023/01/14 00:23:00;;;;;;;1.5;1.5;;;;;;;6.9;100.0;101260;;;;
2023/01/14 00:24:00;;;;;;;1.5;1.5;;;;;;;6.9;100.0;101260;;;;
2023/01/14 00:25:00;;;;;;;1.5;1.5;;;;;;;6.9;100.0;101260;;;;
2023/01/14 00:26:01;;;;;;;1.5;1.5;;;;;;;6.8;100.0;101260;;;;
2023/01/14 00:27:00;;;;;;;1.5;1.5;;;;;;;6.8;100.0;101260;;;;
2023/01/14 00:28:00;;;;;;;1.5;1.5;;;;;;;6.8;100.0;101260;;;;
2023/01/14 00:29:00;;;;;;;1.5;1.5;;;;;;;6.8;100.0;101260;;;;
2023/01/14 00:30:00;;;;;;;1.5;1.5;;;;;;;6.8;100.0;101260;;;;
2023/01/14 00:31:01;;;;;;;1.5;1.5;;;;;;;6.8;100.0;101260;;;;
2023/01/14 00:32:03;;;;;;;1.5;1.5;;;;;;;6.8;100.0;101270;;;;
2023/01/14 00:33:00;;;;;;;3.3;3.1;;;;;;;6.8;100.0;101270;;;;
2023/01/14 00:34:00;;;;;;;3.3;3.1;;;;;;;6.8;100.0;101270;;;;
2023/01/14 00:35:00;;;;;;;3.3;3.1;;;;;;;6.8;100.0;101270;;;;
2023/01/14 00:36:00;;;;;;;3.3;3.1;;;;;;;6.8;100.0;101280;;;;
2023/01/14 00:37:00;;;;;;;3.3;3.1;;;;;;;6.8;100.0;101280;;;;
2023/01/14 00:38:00;;;;;;;3.3;3.1;;;;;;;6.8;100.0;101270;;;;
2023/01/14 00:39:00;;;;;;;3.3;3.1;;;;;;;6.8;100.0;101270;;;;
2023/01/14 00:40:00;;;;;;;3.3;3.1;;;;;;;6.7;100.0;101260;;;;
2023/01/14 00:41:01;;;;;;;3.3;3.1;;;;;;;6.7;100.0;101260;;;;
2023/01/14 00:42:00;;;;;;;3.3;3.1;;;;;;;6.7;100.0;101260;;;;
2023/01/14 00:43:00;;;;;;;3.3;3.1;;;;;;;6.7;100.0;101260;;;;
2023/01/14 00:44:00;;;;;;;3.3;3.1;;;;;;;6.7;100.0;101260;;;;
2023/01/14 00:45:00;;;;;;;3.3;3.1;;;;;;;6.7;100.0;101260;;;;
2023/01/14 00:46:00;;;;;;;3.3;3.1;;;;;;;6.6;100.0;101260;;;;
2023/01/14 00:47:00;;;;;;;3.3;3.1;;;;;;;6.6;100.0;101260;;;;
2023/01/14 00:48:00;;;;;;;3.3;3.1;;;;;;;6.6;100.0;101260;;;;
2023/01/14 00:49:01;;;;;;;3.3;3.1;;;;;;;6.6;100.0;101260;;;;
2023/01/14 00:50:01;;;;;;;3.3;3.1;;;;;;;6.8;100.0;101260;;;;
2023/01/14 00:51:00;;;;;;;3.3;3.1;;;;;;;6.8;100.0;101260;;;;
2023/01/14 00:52:02;;;;;;;3.3;3.1;;;;;;;6.7;100.0;101270;;;;
2023/01/14 00:53:00;;;;;;;1.6;1.6;;;;;;;6.7;100.0;101270;;;;
2023/01/14 00:54:01;;;;;;;1.6;1.6;;;;;;;6.6;100.0;101260;;;;
2023/01/14 00:55:00;;;;;;;1.6;1.6;;;;;;;6.6;100.0;101260;;;;
2023/01/14 00:56:00;;;;;;;1.6;1.6;;;;;;;6.6;100.0;101260;;;;
2023/01/14 00:57:00;;;;;;;1.6;1.6;;;;;;;6.6;100.0;101260;;;;
2023/01/14 00:58:00;;;;;;;1.6;1.6;;;;;;;6.7;100.0;101250;;;;
2023/01/14 00:59:00;;;;;;;1.6;1.6;;;;;;;6.7;100.0;101250;;;;
2023/01/14 01:00:00;;;;;;;1.6;1.6;;;;;;;6.6;100.0;101270;;;;
2023/01/14 01:01:00;;;;;;;1.6;1.6;;;;;;;6.6;100.0;101270;;;;
2023/01/14 01:02:02;;;;;;;1.6;1.6;;;;;;;6.6;100.0;101270;;;;
2023/01/14 01:03:00;;;;;;;1.6;1.6;;;;;;;6.6;100.0;101270;;;;
2023/01/14 01:04:02;;;;;;;1.6;1.6;;;;;;;6.5;100.0;101270;;;;
2023/01/14 01:05:00;;;;;;;1.6;1.6;;;;;;;6.5;100.0;101270;;;;
2023/01/14 01:06:00;;;;;;;1.6;1.6;;;;;;;6.5;100.0;101270;;;;
2023/01/14 01:07:01;;;;;;;1.6;1.6;;;;;;;6.5;100.0;101270;;;;
2023/01/14 01:08:00;;;;;;;1.6;1.6;;;;;;;6.5;100.0;101270;;;;
2023/01/14 01:09:01;;;;;;;1.6;1.6;;;;;;;6.5;100.0;101270;;;;
2023/01/14 01:10:00;;;;;;;1.6;1.6;;;;;;;6.5;100.0;101280;;;;
2023/01/14 01:11:00;;;;;;;1.6;1.6;;;;;;;6.5;100.0;101280;;;;
2023/01/14 01:12:00;;;;;;;1.6;1.6;;;;;;;6.4;100.0;101280;;;;
2023/01/14 01:13:01;;;;;;;1.6;1.6;;;;;;;6.4;100.0;101280;;;;
2023/01/14 01:14:00;;;;;;;1.6;1.6;;;;;;;6.5;100.0;101290;;;;
2023/01/14 01:15:00;;;;;;;1.6;1.6;;;;;;;6.5;100.0;101290;;;;
2023/01/14 01:16:02;;;;;;;1.6;1.6;;;;;;;6.4;100.0;101300;;;;
2023/01/14 01:17:00;;;;;;;1.6;1.6;;;;;;;6.4;100.0;101300;;;;
2023/01/14 01:18:01;;;;;;;1.6;1.6;;;;;;;6.4;100.0;101300;;;;
2023/01/14 01:19:00;;;;;;;1.6;1.6;;;;;;;6.4;100.0;101300;;;;
2023/01/14 01:20:00;;;;;;;1.6;1.6;;;;;;;6.3;100.0;101300;;;;
2023/01/14 01:21:01;;;;;;;1.6;1.6;;;;;;;6.3;100.0;101300;;;;
2023/01/14 01:22:00;;;;;;;1.6;1.6;;;;;;;6.2;100.0;101290;;;;
2023/01/14 01:23:00;;;;;;;1.6;1.6;;;;;;;6.2;100.0;101290;;;;
2023/01/14 01:24:00;;;;;;;1.6;1.6;;;;;;;6.2;100.0;101290;;;;
2023/01/14 01:25:00;;;;;;;1.6;1.6;;;;;;;6.2;100.0;101290;;;;
2023/01/14 01:26:01;;;;;;;1.6;1.6;;;;;;;6.1;100.0;101290;;;;
2023/01/14 01:27:00;;;;;;;1.6;1.6;;;;;;;6.1;100.0;101290;;;;
2023/01/14 01:28:00;;;;;;;1.6;1.6;;;;;;;6.1;100.0;101280;;;;
2023/01/14 01:29:00;;;;;;;1.6;1.6;;;;;;;6.1;100.0;101280;;;;
2023/01/14 01:30:00;;;;;;;1.6;1.6;;;;;;;6.1;100.0;101280;;;;
2023/01/14 01:31:01;;;;;;;1.6;1.6;;;;;;;6.1;100.0;101280;;;;
2023/01/14 01:32:00;;;;;;;1.6;1.6;;;;;;;6.1;100.0;101280;;;;
2023/01/14 01:33:01;;;;;;;1.5;1.5;;;;;;;6.1;100.0;101280;;;;
2023/01/14 01:34:00;;;;;;;1.5;1.5;;;;;;;6.0;100.0;101280;;;;
2023/01/14 01:35:00;;;;;;;1.5;1.5;;;;;;;6.0;100.0;101280;;;;
2023/01/14 01:36:01;;;;;;;1.5;1.5;;;;;;;6.1;100.0;101270;;;;
2023/01/14 01:37:00;;;;;;;1.5;1.5;;;;;;;6.1;100.0;101270;;;;
2023/01/14 01:38:02;;;;;;;1.5;1.5;;;;;;;6.1;100.0;101280;;;;
2023/01/14 01:39:00;;;;;;;1.5;1.5;;;;;;;6.1;100.0;101280;;;;
2023/01/14 01:40:00;;;;;;;1.5;1.5;;;;;;;6.0;100.0;101270;;;;
2023/01/14 01:41:00;;;;;;;1.5;1.5;;;;;;;6.0;100.0;101270;;;;
2023/01/14 01:42:00;;;;;;;1.5;1.5;;;;;;;6.0;100.0;101270;;;;
2023/01/14 01:43:00;;;;;;;1.5;1.5;;;;;;;6.0;100.0;101270;;;;
2023/01/14 01:44:00;;;;;;;1.5;1.5;;;;;;;5.9;100.0;101280;;;;
2023/01/14 01:45:00;;;;;;;1.5;1.5;;;;;;;5.9;100.0;101280;;;;
2023/01/14 01:46:00;;;;;;;1.5;1.5;;;;;;;5.8;100.0;101270;;;;
2023/01/14 01:47:00;;;;;;;1.5;1.5;;;;;;;5.8;100.0;101270;;;;
2023/01/14 01:48:03;;;;;;;1.5;1.5;;;;;;;5.9;100.0;101270;;;;
2023/01/14 01:49:06;;;;;;;1.5;1.5;;;;;;;5.9;100.0;101260;;;;
2023/01/14 01:50:00;;;;;;;1.5;1.5;;;;;;;5.9;100.0;101260;;;;
2023/01/14 01:51:05;;;;;;;1.5;1.5;;;;;;;5.9;100.0;101260;;;;
2023/01/14 01:52:10;;;;;;;1.5;1.5;;;;;;;5.9;100.0;101260;;;;
2023/01/14 01:53:01;;;;;;;1.5;1.5;;;;;;;5.9;100.0;101260;;;;
2023/01/14 01:54:00;;;;;;;1.5;1.5;;;;;;;5.9;100.0;101280;;;;
2023/01/14 01:55:02;;;;;;;1.5;1.5;;;;;;;5.9;100.0;101280;;;;
2023/01/14 01:56:01;;;;;;;1.5;1.5;;;;;;;5.8;100.0;101270;;;;
2023/01/14 01:57:01;;;;;;;1.5;1.5;;;;;;;5.8;100.0;101270;;;;
2023/01/14 01:58:01;;;;;;;1.5;1.5;;;;;;;5.9;100.0;101270;;;;
2023/01/14 01:59:02;;;;;;;1.5;1.5;;;;;;;5.9;100.0;101270;;;;
2023/01/14 02:00:01;;;;;;;1.5;1.5;;;;;;;5.8;100.0;101280;;;;
2023/01/14 02:01:01;;;;;;;1.5;1.5;;;;;;;5.8;100.0;101280;;;;
2023/01/14 02:02:00;;;;;;;1.5;1.5;;;;;;;5.9;100.0;101280;;;;
2023/01/14 02:03:03;;;;;;;1.5;1.5;;;;;;;5.9;100.0;101280;;;;
2023/01/14 02:04:00;;;;;;;1.5;1.5;;;;;;;5.8;100.0;101280;;;;
2023/01/14 02:05:01;;;;;;;1.5;1.5;;;;;;;5.8;100.0;101280;;;;
2023/01/14 02:06:00;;;;;;;1.5;1.5;;;;;;;5.7;100.0;101280;;;;
2023/01/14 02:07:00;;;;;;;1.5;1.5;;;;;;;5.7;100.0;101280;;;;
2023/01/14 02:08:00;;;;;;;1.5;1.5;;;;;;;5.7;100.0;101280;;;;
2023/01/14 02:09:00;;;;;;;1.5;1.5;;;;;;;5.7;100.0;101280;;;;
2023/01/14 02:10:02;;;;;;;1.5;1.5;;;;;;;5.7;100.0;101280;;;;
2023/01/14 02:11:10;;;;;;;1.5;1.5;;;;;;;5.7;100.0;101270;;;;
2023/01/14 02:12:10;;;;;;;1.5;1.5;;;;;;;5.7;100.0;101270;;;;
2023/01/14 02:13:00;;;;;;;1.9;1.9;;;;;;;5.7;100.0;101270;;;;
2023/01/14 02:14:10;;;;;;;1.9;1.9;;;;;;;5.7;100.0;101270;;;;
2023/01/14 02:15:06;;;;;;;1.9;1.9;;;;;;;5.7;100.0;101260;;;;
2023/01/14 02:16:01;;;;;;;1.9;1.9;;;;;;;5.7;100.0;101260;;;;
2023/01/14 02:17:09;;;;;;;1.9;1.9;;;;;;;5.7;100.0;101260;;;;
2023/01/14 02:18:10;;;;;;;1.9;1.9;;;;;;;5.7;100.0;101260;;;;
2023/01/14 02:19:10;;;;;;;1.9;1.9;;;;;;;5.7;100.0;101260;;;;
2023/01/14 02:20:00;;;;;;;1.9;1.9;;;;;;;5.7;100.0;101260;;;;
2023/01/14 02:21:10;;;;;;;1.9;1.9;;;;;;;5.7;100.0;101250;;;;
2023/01/14 02:22:10;;;;;;;1.9;1.9;;;;;;;5.7;100.0;101250;;;;
2023/01/14 02:23:10;;;;;;;1.9;1.9;;;;;;;5.7;100.0;101240;;;;
2023/01/14 02:24:10;;;;;;;1.9;1.9;;;;;;;5.7;100.0;101240;;;;
2023/01/14 02:25:10;;;;;;;1.9;1.9;;;;;;;5.7;100.0;101240;;;;
2023/01/14 02:26:10;;;;;;;1.9;1.9;;;;;;;5.7;100.0;101240;;;;
2023/01/14 02:27:01;;;;;;;1.9;1.9;;;;;;;5.7;100.0;101240;;;;
2023/01/14 02:28:09;;;;;;;1.9;1.9;;;;;;;5.8;100.0;101240;;;;
2023/01/14 02:29:02;;;;;;;1.9;1.9;;;;;;;5.8;100.0;101240;;;;
2023/01/14 02:30:06;;;;;;;1.9;1.9;;;;;;;5.7;100.0;101230;;;;
2023/01/14 02:31:09;;;;;;;1.9;1.9;;;;;;;5.6;100.0;101230;;;;
2023/01/14 02:32:10;;;;;;;1.9;1.9;;;;;;;5.6;100.0;101230;;;;
2023/01/14 02:33:10;;;;;;;2.4;2.3;;;;;;;5.7;100.0;101220;;;;
2023/01/14 02:34:10;;;;;;;2.4;2.3;;;;;;;5.7;100.0;101220;;;;
2023/01/14 02:35:10;;;;;;;2.4;2.3;;;;;;;5.7;100.0;101220;;;;
2023/01/14 02:36:06;;;;;;;2.4;2.3;;;;;;;5.7;100.0;101220;;;;
2023/01/14 02:37:09;;;;;;;2.4;2.3;;;;;;;5.7;100.0;101210;;;;
2023/01/14 02:38:10;;;;;;;2.4;2.3;;;;;;;5.7;100.0;101210;;;;
2023/01/14 02:39:04;;;;;;;2.4;2.3;;;;;;;5.7;100.0;101210;;;;
2023/01/14 02:40:10;;;;;;;2.4;2.3;;;;;;;5.7;100.0;101210;;;;
2023/01/14 02:41:12;;;;;;;2.4;2.3;;;;;;;5.7;100.0;101200;;;;
2023/01/14 02:44:10;;;;;;;2.4;2.3;;;;;;;5.7;100.0;101200;;;;
2023/01/14 02:45:05;;;;;;;2.4;2.3;;;;;;;5.6;100.0;101190;;;;
2023/01/14 02:46:03;;;;;;;2.4;2.3;;;;;;;5.6;100.0;101190;;;;
2023/01/14 02:47:03;;;;;;;2.4;2.3;;;;;;;5.5;100.0;101190;;;;
2023/01/14 02:48:03;;;;;;;2.4;2.3;;;;;;;5.5;100.0;101190;;;;
2023/01/14 02:49:02;;;;;;;2.4;2.3;;;;;;;5.5;100.0;101190;;;;
2023/01/14 02:50:01;;;;;;;2.4;2.3;;;;;;;5.5;100.0;101180;;;;
2023/01/14 02:51:00;;;;;;;2.4;2.3;;;;;;;5.5;100.0;101180;;;;
2023/01/14 02:52:04;;;;;;;2.4;2.3;;;;;;;5.6;100.0;101180;;;;
2023/01/14 02:53:06;;;;;;;1.6;1.6;;;;;;;5.6;100.0;101190;;;;
2023/01/14 02:54:00;;;;;;;1.6;1.6;;;;;;;5.6;100.0;101190;;;;
2023/01/14 02:55:02;;;;;;;1.6;1.6;;;;;;;5.6;100.0;101190;;;;
2023/01/14 02:56:00;;;;;;;1.6;1.6;;;;;;;5.6;100.0;101180;;;;
2023/01/14 02:57:04;;;;;;;1.6;1.6;;;;;;;5.5;100.0;101190;;;;
2023/01/14 02:58:10;;;;;;;1.6;1.6;;;;;;;5.5;100.0;101190;;;;
2023/01/14 02:59:00;;;;;;;1.6;1.6;;;;;;;5.5;100.0;101190;;;;
2023/01/14 03:00:10;;;;;;;1.6;1.6;;;;;;;5.5;100.0;101190;;;;
2023/01/14 03:01:00;;;;;;;1.6;1.6;;;;;;;5.5;100.0;101190;;;;
2023/01/14 03:02:11;;;;;;;1.6;1.6;;;;;;;5.5;100.0;101190;;;;
2023/01/14 03:03:10;;;;;;;1.6;1.6;;;;;;;5.5;100.0;101180;;;;
2023/01/14 03:04:00;;;;;;;1.6;1.6;;;;;;;5.5;100.0;101180;;;;
2023/01/14 03:05:04;;;;;;;1.6;1.6;;;;;;;5.5;100.0;101170;;;;
2023/01/14 03:06:01;;;;;;;1.6;1.6;;;;;;;5.5;100.0;101170;;;;
2023/01/14 03:07:10;;;;;;;1.6;1.6;;;;;;;5.4;100.0;101180;;;;
2023/01/14 03:08:10;;;;;;;1.6;1.6;;;;;;;5.4;100.0;101180;;;;
2023/01/14 03:09:04;;;;;;;1.6;1.6;;;;;;;5.4;100.0;101180;;;;
2023/01/14 03:10:04;;;;;;;1.6;1.6;;;;;;;5.4;100.0;101180;;;;
2023/01/14 03:11:02;;;;;;;1.6;1.6;;;;;;;5.4;100.0;101180;;;;
2023/01/14 03:12:07;;;;;;;1.6;1.6;;;;;;;5.5;100.0;101180;;;;
2023/01/14 03:13:00;;;;;;;1.5;1.5;;;;;;;5.5;100.0;101180;;;;
2023/01/14 03:14:02;;;;;;;1.5;1.5;;;;;;;5.5;100.0;101180;;;;
2023/01/14 03:15:10;;;;;;;1.5;1.5;;;;;;;5.5;100.0;101170;;;;
2023/01/14 03:16:06;;;;;;;1.5;1.5;;;;;;;5.5;100.0;101170;;;;
2023/01/14 03:17:04;;;;;;;1.5;1.5;;;;;;;5.5;100.0;101160;;;;
2023/01/14 03:18:04;;;;;;;1.5;1.5;;;;;;;5.5;100.0;101160;;;;
2023/01/14 03:19:07;;;;;;;1.5;1.5;;;;;;;5.6;100.0;101170;;;;
2023/01/14 03:20:05;;;;;;;1.5;1.5;;;;;;;5.6;100.0;101170;;;;
2023/01/14 03:21:03;;;;;;;1.5;1.5;;;;;;;5.6;100.0;101170;;;;
2023/01/14 03:22:02;;;;;;;1.5;1.5;;;;;;;5.5;100.0;101160;;;;
2023/01/14 03:23:03;;;;;;;1.5;1.5;;;;;;;5.5;100.0;101160;;;;
2023/01/14 03:24:04;;;;;;;1.5;1.5;;;;;;;5.5;100.0;101150;;;;
2023/01/14 03:25:01;;;;;;;1.5;1.5;;;;;;;5.5;100.0;101150;;;;
2023/01/14 03:26:01;;;;;;;1.5;1.5;;;;;;;5.6;100.0;101150;;;;
2023/01/14 03:27:04;;;;;;;1.5;1.5;;;;;;;5.5;100.0;101150;;;;
2023/01/14 03:28:02;;;;;;;1.5;1.5;;;;;;;5.5;100.0;101150;;;;
2023/01/14 03:29:02;;;;;;;1.5;1.5;;;;;;;5.5;100.0;101150;;;;
2023/01/14 03:30:03;;;;;;;1.5;1.5;;;;;;;5.6;100.0;101150;;;;
2023/01/14 03:31:02;;;;;;;1.5;1.5;;;;;;;5.6;100.0;101150;;;;
2023/01/14 03:32:04;;;;;;;1.5;1.5;;;;;;;5.5;100.0;101150;;;;
2023/01/14 03:33:10;;;;;;;1.5;1.5;;;;;;;5.6;100.0;101150;;;;
2023/01/14 03:34:02;;;;;;;1.5;1.5;;;;;;;5.6;100.0;101150;;;;
2023/01/14 03:35:07;;;;;;;1.5;1.5;;;;;;;5.6;100.0;101140;;;;
2023/01/14 03:36:01;;;;;;;1.5;1.5;;;;;;;5.6;100.0;101140;;;;
2023/01/14 03:37:02;;;;;;;1.5;1.5;;;;;;;5.6;100.0;101140;;;;
2023/01/14 03:38:04;;;;;;;1.5;1.5;;;;;;;5.4;100.0;101140;;;;
2023/01/14 03:39:04;;;;;;;1.5;1.5;;;;;;;5.5;100.0;101140;;;;
2023/01/14 03:40:02;;;;;;;1.5;1.5;;;;;;;5.5;100.0;101140;;;;
2023/01/14 03:41:01;;;;;;;1.5;1.5;;;;;;;5.5;100.0;101140;;;;
2023/01/14 03:43:05;;;;;;;1.5;1.5;;;;;;;5.7;100.0;101140;;;;
2023/01/14 03:44:03;;;;;;;1.5;1.5;;;;;;;5.7;100.0;101140;;;;
2023/01/14 03:45:10;;;;;;;1.5;1.5;;;;;;;5.7;100.0;101140;;;;
2023/01/14 03:46:01;;;;;;;1.5;1.5;;;;;;;5.7;100.0;101140;;;;
2023/01/14 03:47:00;;;;;;;1.5;1.5;;;;;;;5.7;100.0;101140;;;;
2023/01/14 03:48:00;;;;;;;1.5;1.5;;;;;;;5.6;100.0;101130;;;;
2023/01/14 03:49:00;;;;;;;1.5;1.5;;;;;;;5.6;100.0;101130;;;;
2023/01/14 03:50:02;;;;;;;1.5;1.5;;;;;;;5.5;100.0;101140;;;;
2023/01/14 03:51:07;;;;;;;1.5;1.5;;;;;;;5.4;100.0;101130;;;;
2023/01/14 03:52:06;;;;;;;1.5;1.5;;;;;;;5.4;100.0;101130;;;;
2023/01/14 03:53:07;;;;;;;1.7;1.7;;;;;;;5.6;100.0;101130;;;;
2023/01/14 03:54:10;;;;;;;1.7;1.7;;;;;;;5.6;100.0;101130;;;;
2023/01/14 03:55:03;;;;;;;1.7;1.7;;;;;;;5.5;100.0;101120;;;;
2023/01/14 03:56:07;;;;;;;1.7;1.7;;;;;;;5.5;100.0;101120;;;;
2023/01/14 03:57:05;;;;;;;1.7;1.7;;;;;;;5.6;100.0;101120;;;;
2023/01/14 03:58:03;;;;;;;1.7;1.7;;;;;;;5.6;100.0;101120;;;;
2023/01/14 03:59:06;;;;;;;1.7;1.7;;;;;;;5.6;100.0;101110;;;;
2023/01/14 04:00:02;;;;;;;1.7;1.7;;;;;;;5.6;100.0;101110;;;;
2023/01/14 04:01:08;;;;;;;1.7;1.7;;;;;;;5.6;100.0;101120;;;;
2023/01/14 04:02:03;;;;;;;1.7;1.7;;;;;;;5.6;100.0;101120;;;;
2023/01/14 04:03:01;;;;;;;1.7;1.7;;;;;;;5.6;100.0;101120;;;;
2023/01/14 04:04:01;;;;;;;1.7;1.7;;;;;;;5.6;100.0;101110;;;;
2023/01/14 04:05:01;;;;;;;1.7;1.7;;;;;;;5.6;100.0;101110;;;;
2023/01/14 04:06:01;;;;;;;1.7;1.7;;;;;;;5.7;100.0;101120;;;;
2023/01/14 04:07:00;;;;;;;1.7;1.7;;;;;;;5.7;100.0;101120;;;;
2023/01/14 04:08:00;;;;;;;1.7;1.7;;;;;;;5.7;100.0;101110;;;;
2023/01/14 04:09:00;;;;;;;1.7;1.7;;;;;;;5.7;100.0;101110;;;;
2023/01/14 04:10:00;;;;;;;1.7;1.7;;;;;;;5.7;100.0;101110;;;;
2023/01/14 04:11:00;;;;;;;1.7;1.7;;;;;;;5.7;100.0;101110;;;;
2023/01/14 04:12:00;;;;;;;1.7;1.7;;;;;;;5.7;100.0;101100;;;;
2023/01/14 04:16:00;;;;;;;1.7;1.7;;;;;;;5.7;100.0;101090;;;;
2023/01/14 04:17:00;;;;;;;1.7;1.7;;;;;;;5.7;100.0;101090;;;;
2023/01/14 04:18:00;;;;;;;1.7;1.7;;;;;;;5.8;100.0;101090;;;;
2023/01/14 04:19:00;;;;;;;1.7;1.7;;;;;;;5.8;100.0;101090;;;;
2023/01/14 04:20:00;;;;;;;1.7;1.7;;;;;;;5.7;100.0;101090;;;;
2023/01/14 04:21:00;;;;;;;1.7;1.7;;;;;;;5.7;100.0;101090;;;;
2023/01/14 04:22:00;;;;;;;1.7;1.7;;;;;;;5.8;100.0;101080;;;;
2023/01/14 04:23:00;;;;;;;1.7;1.7;;;;;;;5.8;100.0;101080;;;;
2023/01/14 04:24:00;;;;;;;1.7;1.7;;;;;;;5.8;100.0;101070;;;;
2023/01/14 04:25:00;;;;;;;1.7;1.7;;;;;;;5.8;100.0;101070;;;;
2023/01/14 04:26:00;;;;;;;1.7;1.7;;;;;;;5.8;100.0;101070;;;;
2023/01/14 04:27:00;;;;;;;1.7;1.7;;;;;;;5.8;100.0;101070;;;;
2023/01/14 04:28:00;;;;;;;1.7;1.7;;;;;;;5.8;100.0;101070;;;;
2023/01/14 04:29:01;;;;;;;1.7;1.7;;;;;;;5.8;100.0;101070;;;;
2023/01/14 04:30:00;;;;;;;1.7;1.7;;;;;;;5.7;100.0;101070;;;;
2023/01/14 04:31:00;;;;;;;1.7;1.7;;;;;;;5.7;100.0;101070;;;;
2023/01/14 04:32:00;;;;;;;1.7;1.7;;;;;;;5.7;100.0;101070;;;;
2023/01/14 04:33:00;;;;;;;1.7;1.7;;;;;;;5.7;100.0;101070;;;;
2023/01/14 04:34:00;;;;;;;1.7;1.7;;;;;;;5.7;100.0;101070;;;;
2023/01/14 04:35:00;;;;;;;1.7;1.7;;;;;;;5.7;100.0;101070;;;;
2023/01/14 04:36:00;;;;;;;1.7;1.7;;;;;;;5.7;100.0;101060;;;;
2023/01/14 04:37:01;;;;;;;1.7;1.7;;;;;;;5.7;100.0;101060;;;;
2023/01/14 04:38:00;;;;;;;1.7;1.7;;;;;;;5.7;100.0;101050;;;;
2023/01/14 04:39:00;;;;;;;1.7;1.7;;;;;;;5.7;100.0;101050;;;;
2023/01/14 04:40:00;;;;;;;1.7;1.7;;;;;;;5.7;100.0;101040;;;;
2023/01/14 04:41:00;;;;;;;1.7;1.7;;;;;;;5.7;100.0;101040;;;;
2023/01/14 04:43:00;;;;;;;1.7;1.7;;;;;;;5.7;100.0;101050;;;;
2023/01/14 04:44:00;;;;;;;1.7;1.7;;;;;;;5.8;100.0;101040;;;;
2023/01/14 04:45:01;;;;;;;1.7;1.7;;;;;;;5.8;100.0;101040;;;;
2023/01/14 04:46:00;;;;;;;1.7;1.7;;;;;;;5.7;100.0;101040;;;;
2023/01/14 04:47:00;;;;;;;1.7;1.7;;;;;;;5.7;100.0;101040;;;;
2023/01/14 04:48:00;;;;;;;1.7;1.7;;;;;;;5.7;100.0;101040;;;;
2023/01/14 04:49:00;;;;;;;1.7;1.7;;;;;;;5.7;100.0;101040;;;;
2023/01/14 04:50:30;;;;;;;1.7;1.7;;;;;;;5.7;100.0;101030;;;;
2023/01/14 04:51:00;;;;;;;1.7;1.7;;;;;;;5.7;100.0;101030;;;;
2023/01/14 04:52:00;;;;;;;1.5;1.5;;;;;;;5.7;100.0;101030;;;;
2023/01/14 04:53:08;;;;;;;1.5;1.5;;;;;;;5.7;100.0;101020;;;;
2023/01/14 04:54:00;;;;;;;1.5;1.5;;;;;;;5.7;100.0;101020;;;;
2023/01/14 04:55:00;;;;;;;1.5;1.5;;;;;;;5.7;100.0;101020;;;;
2023/01/14 04:56:00;;;;;;;1.5;1.5;;;;;;;5.7;100.0;101020;;;;
2023/01/14 04:57:00;;;;;;;1.5;1.5;;;;;;;5.7;100.0;101020;;;;
2023/01/14 04:58:00;;;;;;;1.5;1.5;;;;;;;5.7;100.0;101030;;;;
2023/01/14 04:59:02;;;;;;;1.5;1.5;;;;;;;5.7;100.0;101030;;;;
2023/01/14 05:00:00;;;;;;;1.5;1.5;;;;;;;5.8;100.0;101030;;;;
2023/01/14 05:01:01;;;;;;;1.5;1.5;;;;;;;5.8;100.0;101030;;;;
2023/01/14 05:02:00;;;;;;;1.5;1.5;;;;;;;5.8;100.0;101020;;;;
2023/01/14 05:03:04;;;;;;;1.5;1.5;;;;;;;5.7;100.0;101020;;;;
2023/01/14 05:04:00;;;;;;;1.5;1.5;;;;;;;5.7;100.0;101020;;;;
2023/01/14 05:05:00;;;;;;;1.5;1.5;;;;;;;5.7;100.0;101020;;;;
2023/01/14 05:06:00;;;;;;;1.5;1.5;;;;;;;5.7;100.0;101020;;;;
2023/01/14 05:07:02;;;;;;;1.5;1.5;;;;;;;5.7;100.0;101020;;;;
2023/01/14 05:08:02;;;;;;;1.5;1.5;;;;;;;5.8;100.0;101010;;;;
2023/01/14 05:09:00;;;;;;;1.5;1.5;;;;;;;5.8;100.0;101010;;;;
2023/01/14 05:10:00;;;;;;;1.5;1.5;;;;;;;5.8;100.0;101010;;;;
2023/01/14 05:11:00;;;;;;;1.5;1.5;;;;;;;5.8;100.0;101010;;;;
2023/01/14 05:12:00;;;;;;;1.5;1.5;;;;;;;5.8;100.0;101000;;;;
2023/01/14 05:13:02;;;;;;;1.5;1.5;;;;;;;5.8;100.0;101000;;;;
2023/01/14 05:14:00;;;;;;;1.5;1.5;;;;;;;5.8;100.0;101010;;;;
2023/01/14 05:15:00;;;;;;;1.5;1.5;;;;;;;5.8;100.0;101010;;;;
2023/01/14 05:16:00;;;;;;;1.5;1.5;;;;;;;5.7;100.0;101000;;;;
2023/01/14 05:17:00;;;;;;;1.5;1.5;;;;;;;5.7;100.0;101000;;;;
2023/01/14 05:18:01;;;;;;;1.5;1.5;;;;;;;5.7;100.0;101000;;;;
2023/01/14 05:19:00;;;;;;;1.5;1.5;;;;;;;5.7;100.0;101000;;;;
2023/01/14 05:20:00;;;;;;;1.5;1.5;;;;;;;5.7;100.0;100990;;;;
2023/01/14 05:21:01;;;;;;;1.5;1.5;;;;;;;5.7;100.0;100990;;;;
2023/01/14 05:22:00;;;;;;;1.5;1.5;;;;;;;5.7;100.0;100980;;;;
2023/01/14 05:23:01;;;;;;;1.5;1.5;;;;;;;5.7;100.0;100980;;;;
2023/01/14 05:24:00;;;;;;;1.5;1.5;;;;;;;5.8;100.0;100980;;;;
2023/01/14 05:25:00;;;;;;;1.5;1.5;;;;;;;5.8;100.0;100980;;;;
2023/01/14 05:26:00;;;;;;;1.5;1.5;;;;;;;5.8;100.0;100980;;;;
2023/01/14 05:27:00;;;;;;;1.5;1.5;;;;;;;5.8;100.0;100980;;;;
2023/01/14 05:28:01;;;;;;;1.5;1.5;;;;;;;5.8;100.0;100970;;;;
2023/01/14 05:29:00;;;;;;;1.5;1.5;;;;;;;5.8;100.0;100970;;;;
2023/01/14 05:30:02;;;;;;;1.5;1.5;;;;;;;5.7;100.0;100970;;;;
2023/01/14 05:31:00;;;;;;;1.5;1.5;;;;;;;5.7;100.0;100970;;;;
2023/01/14 05:32:00;;;;;;;1.5;1.5;;;;;;;5.7;100.0;100970;;;;
2023/01/14 05:33:00;;;;;;;1.5;1.5;;;;;;;5.7;100.0;100970;;;;
2023/01/14 05:34:00;;;;;;;1.5;1.5;;;;;;;5.8;100.0;100970;;;;
2023/01/14 05:35:00;;;;;;;1.5;1.5;;;;;;;5.8;100.0;100970;;;;
2023/01/14 05:36:00;;;;;;;1.5;1.5;;;;;;;5.8;100.0;100960;;;;
2023/01/14 05:37:00;;;;;;;1.5;1.5;;;;;;;5.8;100.0;100960;;;;
2023/01/14 05:38:00;;;;;;;1.5;1.5;;;;;;;5.8;100.0;100960;;;;
2023/01/14 05:39:00;;;;;;;1.5;1.5;;;;;;;5.8;100.0;100960;;;;
2023/01/14 05:40:00;;;;;;;1.5;1.5;;;;;;;5.8;100.0;100950;;;;
2023/01/14 05:41:00;;;;;;;1.5;1.5;;;;;;;5.8;100.0;100950;;;;
2023/01/14 05:46:04;;;;;;;1.5;1.5;;;;;;;5.8;100.0;100930;;;;
2023/01/14 05:47:00;;;;;;;1.5;1.5;;;;;;;5.8;100.0;100930;;;;
2023/01/14 05:48:00;;;;;;;1.5;1.5;;;;;;;5.8;100.0;100920;;;;
2023/01/14 05:49:00;;;;;;;1.5;1.5;;;;;;;5.8;100.0;100920;;;;
2023/01/14 05:50:00;;;;;;;1.5;1.5;;;;;;;5.9;100.0;100910;;;;
2023/01/14 05:51:01;;;;;;;1.5;1.5;;;;;;;5.9;100.0;100910;;;;
2023/01/14 05:52:00;;;;;;;1.8;1.8;;;;;;;5.8;100.0;100900;;;;
2023/01/14 05:53:00;;;;;;;1.8;1.8;;;;;;;5.8;100.0;100900;;;;
2023/01/14 05:54:00;;;;;;;1.8;1.8;;;;;;;5.8;100.0;100900;;;;
2023/01/14 05:55:00;;;;;;;1.8;1.8;;;;;;;5.8;100.0;100900;;;;
2023/01/14 05:56:00;;;;;;;1.8;1.8;;;;;;;5.9;100.0;100890;;;;
2023/01/14 05:57:00;;;;;;;1.8;1.8;;;;;;;5.9;100.0;100890;;;;
2023/01/14 05:58:01;;;;;;;1.8;1.8;;;;;;;5.8;100.0;100880;;;;
2023/01/14 05:59:00;;;;;;;1.8;1.8;;;;;;;5.8;100.0;100880;;;;
2023/01/14 06:00:00;;;;;;;1.8;1.8;;;;;;;5.9;100.0;100880;;;;
2023/01/14 06:07:00;;;;;;;1.8;1.8;;;;;;;5.8;100.0;100870;;;;
2023/01/14 06:08:00;;;;;;;1.8;1.8;;;;;;;5.9;100.0;100870;;;;
2023/01/14 06:09:04;;;;;;;1.8;1.8;;;;;;;5.8;100.0;100860;;;;
2023/01/14 06:10:00;;;;;;;1.8;1.8;;;;;;;5.8;100.0;100860;;;;
2023/01/14 06:11:00;;;;;;;1.8;1.8;;;;;;;5.8;100.0;100860;;;;
2023/01/14 06:12:03;;;;;;;1.7;1.7;;;;;;;5.8;100.0;100860;;;;
2023/01/14 06:13:03;;;;;;;1.7;1.7;;;;;;;5.8;100.0;100860;;;;
2023/01/14 06:14:01;;;;;;;1.7;1.7;;;;;;;5.9;100.0;100850;;;;
2023/01/14 06:15:00;;;;;;;1.7;1.7;;;;;;;5.9;100.0;100850;;;;
2023/01/14 06:16:02;;;;;;;1.7;1.7;;;;;;;5.8;100.0;100850;;;;
2023/01/14 06:17:05;;;;;;;1.7;1.7;;;;;;;5.8;100.0;100850;;;;
2023/01/14 06:19:00;;;;;;;1.7;1.7;;;;;;;5.9;100.0;100850;;;;
2023/01/14 06:20:02;;;;;;;1.7;1.7;;;;;;;6.0;100.0;100850;;;;
2023/01/14 06:21:00;;;;;;;1.7;1.7;;;;;;;6.0;100.0;100850;;;;
2023/01/14 06:22:00;;;;;;;1.7;1.7;;;;;;;5.9;100.0;100850;;;;
2023/01/14 06:23:00;;;;;;;1.7;1.7;;;;;;;5.9;100.0;100850;;;;
2023/01/14 06:24:00;;;;;;;1.7;1.7;;;;;;;5.9;100.0;100830;;;;
2023/01/14 06:25:00;;;;;;;1.7;1.7;;;;;;;5.9;100.0;100830;;;;
2023/01/14 06:26:00;;;;;;;1.7;1.7;;;;;;;6.0;100.0;100830;;;;
2023/01/14 06:27:00;;;;;;;1.7;1.7;;;;;;;6.0;100.0;100830;;;;
2023/01/14 06:28:00;;;;;;;1.7;1.7;;;;;;;6.0;100.0;100830;;;;
2023/01/14 06:29:02;;;;;;;1.7;1.7;;;;;;;6.0;100.0;100830;;;;
2023/01/14 06:30:00;;;;;;;1.7;1.7;;;;;;;6.0;100.0;100830;;;;
2023/01/14 06:31:00;;;;;;;1.7;1.7;;;;;;;6.0;100.0;100830;;;;
2023/01/14 06:32:00;;;;;;;1.5;1.5;;;;;;;6.1;100.0;100820;;;;
2023/01/14 06:33:00;;;;;;;1.5;1.5;;;;;;;6.1;100.0;100820;;;;
2023/01/14 06:34:01;;;;;;;1.5;1.5;;;;;;;6.0;100.0;100830;;;;
2023/01/14 06:35:00;;;;;;;1.5;1.5;;;;;;;6.0;100.0;100830;;;;
2023/01/14 06:36:00;;;;;;;1.5;1.5;;;;;;;6.0;100.0;100810;;;;
2023/01/14 06:37:00;;;;;;;1.5;1.5;;;;;;;6.0;100.0;100810;;;;
2023/01/14 06:38:00;;;;;;;1.5;1.5;;;;;;;6.0;100.0;100810;;;;
2023/01/14 06:39:01;;;;;;;1.5;1.5;;;;;;;6.0;100.0;100810;;;;
2023/01/14 06:40:00;;;;;;;1.5;1.5;;;;;;;6.1;100.0;100800;;;;
2023/01/14 06:41:01;;;;;;;1.5;1.5;;;;;;;6.1;100.0;100800;;;;
2023/01/14 06:42:00;;;;;;;1.5;1.5;;;;;;;6.0;100.0;100800;;;;
2023/01/14 06:43:00;;;;;;;1.5;1.5;;;;;;;6.0;100.0;100800;;;;
2023/01/14 06:44:01;;;;;;;1.5;1.5;;;;;;;6.0;100.0;100800;;;;
2023/01/14 06:45:00;;;;;;;1.5;1.5;;;;;;;6.0;100.0;100800;;;;
2023/01/14 06:46:01;;;;;;;1.5;1.5;;;;;;;6.1;100.0;100790;;;;
2023/01/14 06:47:00;;;;;;;1.5;1.5;;;;;;;6.1;100.0;100790;;;;